sensor_id;sensor_type;location;lat;lon;timestamp;temperature;humidity
14252;DHT22;7210;51.502;10.722;2023-04-25T00:01:21;5.30;99.90
14252;DHT22;7210;51.502;10.722;2023-04-25T00:03:48;5.30;99.90
14252;DHT22;7210;51.502;10.722;2023-04-25T00:06:15;5.40;99.90
14252;DHT22;7210;51.502;10.722;2023-04-25T00:08:43;5.40;99.90
14252;DHT22;7210;51.502;10.722;2023-04-25T00:11:12;5.40;99.90
14252;DHT22;7210;51.502;10.722;2023-04-25T00:13:39;5.40;99.90
14252;DHT22;7210;51.502;10.722;2023-04-25T00:16:07;5.40;99.90
14252;DHT22;7210;51.502;10.722;2023-04-25T00:18:34;5.30;99.90
14252;DHT22;7210;51.502;10.722;2023-04-25T00:21:01;5.20;99.90
14252;DHT22;7210;51.502;10.722;2023-04-25T00:23:31;5.20;99.90
14252;DHT22;7210;51.502;10.722;2023-04-25T00:26:01;5.10;99.90
14252;DHT22;7210;51.502;10.722;2023-04-25T00:28:30;5.00;99.90
14252;DHT22;7210;51.502;10.722;2023-04-25T00:30:57;5.00;99.90
14252;DHT22;7210;51.502;10.722;2023-04-25T00:33:25;5.00;99.90
14252;DHT22;7210;51.502;10.722;2023-04-25T00:35:52;4.90;99.90
14252;DHT22;7210;51.502;10.722;2023-04-25T00:38:19;4.90;99.90
14252;DHT22;7210;51.502;10.722;2023-04-25T00:40:46;4.90;99.90
14252;DHT22;7210;51.502;10.722;2023-04-25T00:43:14;4.90;99.90
14252;DHT22;7210;51.502;10.722;2023-04-25T00:45:43;4.70;99.90
14252;DHT22;7210;51.502;10.722;2023-04-25T00:48:14;4.60;99.90
14252;DHT22;7210;51.502;10.722;2023-04-25T00:50:41;4.60;99.90
14252;DHT22;7210;51.502;10.722;2023-04-25T00:53:15;4.50;99.90
14252;DHT22;7210;51.502;10.722;2023-04-25T00:55:42;4.40;99.90
14252;DHT22;7210;51.502;10.722;2023-04-25T00:58:09;4.20;99.90
14252;DHT22;7210;51.502;10.722;2023-04-25T01:00:36;4.10;99.90
14252;DHT22;7210;51.502;10.722;2023-04-25T01:03:05;4.00;99.90
14252;DHT22;7210;51.502;10.722;2023-04-25T01:05:32;4.00;99.90
14252;DHT22;7210;51.502;10.722;2023-04-25T01:08:00;3.90;99.90
14252;DHT22;7210;51.502;10.722;2023-04-25T01:10:27;3.80;99.90
14252;DHT22;7210;51.502;10.722;2023-04-25T01:12:54;3.80;99.90
14252;DHT22;7210;51.502;10.722;2023-04-25T01:15:21;3.80;99.90
14252;DHT22;7210;51.502;10.722;2023-04-25T01:17:49;3.90;99.90
14252;DHT22;7210;51.502;10.722;2023-04-25T01:20:18;3.90;99.90
14252;DHT22;7210;51.502;10.722;2023-04-25T01:22:49;4.00;99.90
14252;DHT22;7210;51.502;10.722;2023-04-25T01:25:17;4.10;99.90
14252;DHT22;7210;51.502;10.722;2023-04-25T01:27:46;4.20;99.90
14252;DHT22;7210;51.502;10.722;2023-04-25T01:30:16;4.40;99.90
14252;DHT22;7210;51.502;10.722;2023-04-25T01:32:44;4.40;99.90
14252;DHT22;7210;51.502;10.722;2023-04-25T01:35:11;4.50;99.90
14252;DHT22;7210;51.502;10.722;2023-04-25T01:37:39;4.60;99.90
14252;DHT22;7210;51.502;10.722;2023-04-25T01:40:09;4.70;99.90
14252;DHT22;7210;51.502;10.722;2023-04-25T01:42:39;4.70;99.90
14252;DHT22;7210;51.502;10.722;2023-04-25T01:45:08;4.70;99.90
14252;DHT22;7210;51.502;10.722;2023-04-25T01:47:40;4.70;99.90
14252;DHT22;7210;51.502;10.722;2023-04-25T01:50:10;4.70;99.90
14252;DHT22;7210;51.502;10.722;2023-04-25T01:52:38;4.70;99.90
14252;DHT22;7210;51.502;10.722;2023-04-25T01:55:09;4.80;99.90
14252;DHT22;7210;51.502;10.722;2023-04-25T01:57:39;4.80;99.90
14252;DHT22;7210;51.502;10.722;2023-04-25T02:00:08;4.80;99.90
14252;DHT22;7210;51.502;10.722;2023-04-25T02:02:39;4.90;99.90
14252;DHT22;7210;51.502;10.722;2023-04-25T02:08:09;4.90;99.90
14252;DHT22;7210;51.502;10.722;2023-04-25T02:10:38;5.00;99.90
14252;DHT22;7210;51.502;10.722;2023-04-25T02:13:17;5.10;99.90
14252;DHT22;7210;51.502;10.722;2023-04-25T02:18:50;5.10;99.90
14252;DHT22;7210;51.502;10.722;2023-04-25T02:21:18;5.10;99.90
14252;DHT22;7210;51.502;10.722;2023-04-25T02:23:46;5.10;99.90
14252;DHT22;7210;51.502;10.722;2023-04-25T02:26:15;5.00;99.90
14252;DHT22;7210;51.502;10.722;2023-04-25T02:28:43;5.00;99.90
14252;DHT22;7210;51.502;10.722;2023-04-25T02:31:10;5.00;99.90
14252;DHT22;7210;51.502;10.722;2023-04-25T02:33:37;5.00;99.90
14252;DHT22;7210;51.502;10.722;2023-04-25T02:36:06;5.00;99.90
14252;DHT22;7210;51.502;10.722;2023-04-25T02:38:33;5.00;99.90
14252;DHT22;7210;51.502;10.722;2023-04-25T02:41:02;5.00;99.90
14252;DHT22;7210;51.502;10.722;2023-04-25T02:43:31;4.90;99.90
14252;DHT22;7210;51.502;10.722;2023-04-25T02:45:58;4.90;99.90
14252;DHT22;7210;51.502;10.722;2023-04-25T02:48:25;4.90;99.90
14252;DHT22;7210;51.502;10.722;2023-04-25T02:50:54;4.70;99.90
14252;DHT22;7210;51.502;10.722;2023-04-25T02:53:21;4.70;99.90
14252;DHT22;7210;51.502;10.722;2023-04-25T02:55:52;4.60;99.90
14252;DHT22;7210;51.502;10.722;2023-04-25T02:58:19;4.50;99.90
14252;DHT22;7210;51.502;10.722;2023-04-25T03:00:52;4.40;99.90
14252;DHT22;7210;51.502;10.722;2023-04-25T03:03:19;4.30;99.90
14252;DHT22;7210;51.502;10.722;2023-04-25T03:05:47;4.20;99.90
14252;DHT22;7210;51.502;10.722;2023-04-25T03:08:19;4.30;99.90
14252;DHT22;7210;51.502;10.722;2023-04-25T03:10:46;4.30;99.90
14252;DHT22;7210;51.502;10.722;2023-04-25T03:13:15;4.30;99.90
14252;DHT22;7210;51.502;10.722;2023-04-25T03:15:43;4.30;99.90
14252;DHT22;7210;51.502;10.722;2023-04-25T03:18:12;4.30;99.90
14252;DHT22;7210;51.502;10.722;2023-04-25T03:20:39;4.20;99.90
14252;DHT22;7210;51.502;10.722;2023-04-25T03:23:08;4.20;99.90
14252;DHT22;7210;51.502;10.722;2023-04-25T03:25:38;4.10;99.90
14252;DHT22;7210;51.502;10.722;2023-04-25T03:28:05;4.20;99.90
14252;DHT22;7210;51.502;10.722;2023-04-25T03:30:33;4.30;99.90
14252;DHT22;7210;51.502;10.722;2023-04-25T03:33:00;4.30;99.90
14252;DHT22;7210;51.502;10.722;2023-04-25T03:35:29;4.30;99.90
14252;DHT22;7210;51.502;10.722;2023-04-25T03:37:56;4.30;99.90
14252;DHT22;7210;51.502;10.722;2023-04-25T03:40:28;4.40;99.90
14252;DHT22;7210;51.502;10.722;2023-04-25T03:43:07;4.30;99.90
14252;DHT22;7210;51.502;10.722;2023-04-25T03:45:35;4.40;99.90
14252;DHT22;7210;51.502;10.722;2023-04-25T03:48:03;4.50;99.90
14252;DHT22;7210;51.502;10.722;2023-04-25T03:50:32;4.50;99.90
14252;DHT22;7210;51.502;10.722;2023-04-25T03:52:59;4.60;99.90
14252;DHT22;7210;51.502;10.722;2023-04-25T03:55:30;4.70;99.90
14252;DHT22;7210;51.502;10.722;2023-04-25T03:57:59;4.80;99.90
14252;DHT22;7210;51.502;10.722;2023-04-25T04:00:27;4.90;99.90
14252;DHT22;7210;51.502;10.722;2023-04-25T04:02:54;5.00;99.90
14252;DHT22;7210;51.502;10.722;2023-04-25T04:05:22;5.10;99.90
14252;DHT22;7210;51.502;10.722;2023-04-25T04:07:55;5.20;99.90
14252;DHT22;7210;51.502;10.722;2023-04-25T04:10:23;5.20;99.90
14252;DHT22;7210;51.502;10.722;2023-04-25T04:12:51;5.30;99.90
14252;DHT22;7210;51.502;10.722;2023-04-25T04:15:20;5.40;99.90
14252;DHT22;7210;51.502;10.722;2023-04-25T04:17:48;5.50;99.90
14252;DHT22;7210;51.502;10.722;2023-04-25T04:20:17;5.60;99.90
14252;DHT22;7210;51.502;10.722;2023-04-25T04:22:44;5.60;99.90
14252;DHT22;7210;51.502;10.722;2023-04-25T04:25:15;5.70;99.90
14252;DHT22;7210;51.502;10.722;2023-04-25T04:28:08;5.70;99.90
14252;DHT22;7210;51.502;10.722;2023-04-25T04:30:56;5.80;99.90
14252;DHT22;7210;51.502;10.722;2023-04-25T04:33:24;5.90;99.90
14252;DHT22;7210;51.502;10.722;2023-04-25T04:35:56;5.90;99.90
14252;DHT22;7210;51.502;10.722;2023-04-25T04:38:24;6.00;99.90
14252;DHT22;7210;51.502;10.722;2023-04-25T04:40:59;6.00;99.90
14252;DHT22;7210;51.502;10.722;2023-04-25T04:43:53;6.10;99.90
14252;DHT22;7210;51.502;10.722;2023-04-25T04:46:44;6.20;99.90
14252;DHT22;7210;51.502;10.722;2023-04-25T04:49:35;6.20;99.90
14252;DHT22;7210;51.502;10.722;2023-04-25T04:52:28;6.20;99.90
14252;DHT22;7210;51.502;10.722;2023-04-25T04:55:14;6.20;99.90
14252;DHT22;7210;51.502;10.722;2023-04-25T04:57:54;6.20;99.90
14252;DHT22;7210;51.502;10.722;2023-04-25T05:00:31;6.20;99.90
14252;DHT22;7210;51.502;10.722;2023-04-25T05:03:27;6.20;99.90
14252;DHT22;7210;51.502;10.722;2023-04-25T05:06:10;6.10;99.90
14252;DHT22;7210;51.502;10.722;2023-04-25T05:08:51;6.10;99.90
14252;DHT22;7210;51.502;10.722;2023-04-25T05:11:51;6.10;99.90
14252;DHT22;7210;51.502;10.722;2023-04-25T05:14:38;6.00;99.90
14252;DHT22;7210;51.502;10.722;2023-04-25T05:17:24;6.00;99.90
14252;DHT22;7210;51.502;10.722;2023-04-25T05:20:14;6.00;99.90
14252;DHT22;7210;51.502;10.722;2023-04-25T05:23:00;6.00;99.90
14252;DHT22;7210;51.502;10.722;2023-04-25T05:25:46;6.00;99.90
14252;DHT22;7210;51.502;10.722;2023-04-25T05:28:32;5.90;99.90
14252;DHT22;7210;51.502;10.722;2023-04-25T05:31:36;5.90;99.90
14252;DHT22;7210;51.502;10.722;2023-04-25T05:34:10;5.90;99.90
14252;DHT22;7210;51.502;10.722;2023-04-25T05:36:46;6.00;99.90
14252;DHT22;7210;51.502;10.722;2023-04-25T05:39:15;6.00;99.90
14252;DHT22;7210;51.502;10.722;2023-04-25T05:42:01;6.00;99.90
14252;DHT22;7210;51.502;10.722;2023-04-25T05:44:47;6.00;99.90
14252;DHT22;7210;51.502;10.722;2023-04-25T05:47:25;6.00;99.90
14252;DHT22;7210;51.502;10.722;2023-04-25T05:50:11;6.10;99.90
14252;DHT22;7210;51.502;10.722;2023-04-25T05:52:56;6.30;99.90
14252;DHT22;7210;51.502;10.722;2023-04-25T05:55:29;6.40;99.90
14252;DHT22;7210;51.502;10.722;2023-04-25T05:58:02;6.60;99.90
14252;DHT22;7210;51.502;10.722;2023-04-25T06:00:30;6.70;99.90
14252;DHT22;7210;51.502;10.722;2023-04-25T06:02:58;6.70;99.90
14252;DHT22;7210;51.502;10.722;2023-04-25T06:05:25;6.60;99.90
14252;DHT22;7210;51.502;10.722;2023-04-25T06:07:53;6.90;99.90
14252;DHT22;7210;51.502;10.722;2023-04-25T06:10:20;6.80;99.90
14252;DHT22;7210;51.502;10.722;2023-04-25T06:12:48;6.90;99.90
14252;DHT22;7210;51.502;10.722;2023-04-25T06:15:17;6.90;99.90
14252;DHT22;7210;51.502;10.722;2023-04-25T06:17:46;6.80;99.90
14252;DHT22;7210;51.502;10.722;2023-04-25T06:20:15;6.70;99.90
14252;DHT22;7210;51.502;10.722;2023-04-25T06:22:43;6.70;99.90
14252;DHT22;7210;51.502;10.722;2023-04-25T06:25:10;6.60;99.90
14252;DHT22;7210;51.502;10.722;2023-04-25T06:27:37;6.60;99.90
14252;DHT22;7210;51.502;10.722;2023-04-25T06:30:06;6.50;99.90
14252;DHT22;7210;51.502;10.722;2023-04-25T06:32:34;6.50;99.90
14252;DHT22;7210;51.502;10.722;2023-04-25T06:35:01;6.40;99.90
14252;DHT22;7210;51.502;10.722;2023-04-25T06:37:30;6.40;99.90
14252;DHT22;7210;51.502;10.722;2023-04-25T06:39:58;6.50;99.90
14252;DHT22;7210;51.502;10.722;2023-04-25T06:42:25;6.60;99.90
14252;DHT22;7210;51.502;10.722;2023-04-25T06:44:58;6.60;99.90
14252;DHT22;7210;51.502;10.722;2023-04-25T06:47:30;7.00;99.90
14252;DHT22;7210;51.502;10.722;2023-04-25T06:50:00;7.30;99.90
14252;DHT22;7210;51.502;10.722;2023-04-25T06:52:27;7.30;99.90
14252;DHT22;7210;51.502;10.722;2023-04-25T06:54:56;7.40;99.90
14252;DHT22;7210;51.502;10.722;2023-04-25T06:57:40;7.50;99.90
14252;DHT22;7210;51.502;10.722;2023-04-25T07:00:32;7.70;99.90
14252;DHT22;7210;51.502;10.722;2023-04-25T07:02:59;7.70;99.90
14252;DHT22;7210;51.502;10.722;2023-04-25T07:05:28;7.70;99.90
14252;DHT22;7210;51.502;10.722;2023-04-25T07:07:56;7.70;99.90
14252;DHT22;7210;51.502;10.722;2023-04-25T07:10:25;7.60;99.90
14252;DHT22;7210;51.502;10.722;2023-04-25T07:12:53;7.80;99.90
14252;DHT22;7210;51.502;10.722;2023-04-25T07:15:20;7.90;99.90
14252;DHT22;7210;51.502;10.722;2023-04-25T07:17:50;7.80;99.90
14252;DHT22;7210;51.502;10.722;2023-04-25T07:20:18;7.70;99.90
14252;DHT22;7210;51.502;10.722;2023-04-25T07:22:45;7.60;99.90
14252;DHT22;7210;51.502;10.722;2023-04-25T07:25:14;7.60;99.90
14252;DHT22;7210;51.502;10.722;2023-04-25T07:27:41;7.60;99.90
14252;DHT22;7210;51.502;10.722;2023-04-25T07:30:20;7.70;99.90
14252;DHT22;7210;51.502;10.722;2023-04-25T07:32:47;7.70;99.90
14252;DHT22;7210;51.502;10.722;2023-04-25T07:35:16;7.80;99.90
14252;DHT22;7210;51.502;10.722;2023-04-25T07:37:44;7.80;99.90
14252;DHT22;7210;51.502;10.722;2023-04-25T07:40:19;7.70;99.90
14252;DHT22;7210;51.502;10.722;2023-04-25T07:42:50;7.70;99.90
14252;DHT22;7210;51.502;10.722;2023-04-25T07:45:25;7.80;99.90
14252;DHT22;7210;51.502;10.722;2023-04-25T07:47:53;7.90;99.90
14252;DHT22;7210;51.502;10.722;2023-04-25T07:50:20;8.00;99.90
14252;DHT22;7210;51.502;10.722;2023-04-25T07:52:48;8.20;99.90
14252;DHT22;7210;51.502;10.722;2023-04-25T07:55:26;8.20;99.90
14252;DHT22;7210;51.502;10.722;2023-04-25T07:58:02;8.20;99.90
14252;DHT22;7210;51.502;10.722;2023-04-25T08:00:31;7.90;99.90
14252;DHT22;7210;51.502;10.722;2023-04-25T08:03:18;7.80;99.90
14252;DHT22;7210;51.502;10.722;2023-04-25T08:05:47;7.70;99.90
14252;DHT22;7210;51.502;10.722;2023-04-25T08:08:14;7.60;99.90
14252;DHT22;7210;51.502;10.722;2023-04-25T08:10:43;7.70;99.90
14252;DHT22;7210;51.502;10.722;2023-04-25T08:13:12;7.80;99.90
14252;DHT22;7210;51.502;10.722;2023-04-25T08:15:40;7.90;99.90
14252;DHT22;7210;51.502;10.722;2023-04-25T08:18:07;8.00;99.90
14252;DHT22;7210;51.502;10.722;2023-04-25T08:20:34;8.20;99.90
14252;DHT22;7210;51.502;10.722;2023-04-25T08:23:05;8.40;99.90
14252;DHT22;7210;51.502;10.722;2023-04-25T08:25:51;8.40;99.90
14252;DHT22;7210;51.502;10.722;2023-04-25T08:28:21;8.30;99.90
14252;DHT22;7210;51.502;10.722;2023-04-25T08:30:49;8.20;99.90
14252;DHT22;7210;51.502;10.722;2023-04-25T08:33:18;8.30;99.90
14252;DHT22;7210;51.502;10.722;2023-04-25T08:36:17;8.30;99.90
14252;DHT22;7210;51.502;10.722;2023-04-25T08:38:44;8.30;99.90
14252;DHT22;7210;51.502;10.722;2023-04-25T08:41:15;8.30;99.90
14252;DHT22;7210;51.502;10.722;2023-04-25T08:43:45;8.30;99.90
14252;DHT22;7210;51.502;10.722;2023-04-25T08:46:17;8.40;99.90
14252;DHT22;7210;51.502;10.722;2023-04-25T08:49:07;8.50;99.90
14252;DHT22;7210;51.502;10.722;2023-04-25T08:51:39;8.70;99.90
14252;DHT22;7210;51.502;10.722;2023-04-25T08:54:13;8.60;99.90
14252;DHT22;7210;51.502;10.722;2023-04-25T08:56:45;8.70;99.90
14252;DHT22;7210;51.502;10.722;2023-04-25T08:59:15;8.80;99.90
14252;DHT22;7210;51.502;10.722;2023-04-25T09:01:45;8.90;99.90
14252;DHT22;7210;51.502;10.722;2023-04-25T09:04:12;8.90;99.90
14252;DHT22;7210;51.502;10.722;2023-04-25T09:06:40;8.90;99.90
14252;DHT22;7210;51.502;10.722;2023-04-25T09:09:08;9.00;99.90
14252;DHT22;7210;51.502;10.722;2023-04-25T09:11:36;9.00;1.40
14252;DHT22;7210;51.502;10.722;2023-04-25T09:14:16;9.10;99.90
14252;DHT22;7210;51.502;10.722;2023-04-25T09:17:05;9.30;1.00
14252;DHT22;7210;51.502;10.722;2023-04-25T09:19:39;9.50;1.00
14252;DHT22;7210;51.502;10.722;2023-04-25T09:22:16;9.60;1.00
14252;DHT22;7210;51.502;10.722;2023-04-25T09:24:47;9.90;1.00
14252;DHT22;7210;51.502;10.722;2023-04-25T09:27:21;10.00;1.00
14252;DHT22;7210;51.502;10.722;2023-04-25T09:29:59;10.20;1.00
14252;DHT22;7210;51.502;10.722;2023-04-25T09:32:30;10.30;1.00
14252;DHT22;7210;51.502;10.722;2023-04-25T09:34:58;10.40;1.00
14252;DHT22;7210;51.502;10.722;2023-04-25T09:37:28;10.40;1.00
14252;DHT22;7210;51.502;10.722;2023-04-25T09:40:18;10.30;1.00
14252;DHT22;7210;51.502;10.722;2023-04-25T09:42:54;10.00;1.00
14252;DHT22;7210;51.502;10.722;2023-04-25T09:45:29;9.80;1.00
14252;DHT22;7210;51.502;10.722;2023-04-25T09:48:03;9.80;1.00
14252;DHT22;7210;51.502;10.722;2023-04-25T09:50:34;9.90;1.00
14252;DHT22;7210;51.502;10.722;2023-04-25T09:53:07;9.70;1.00
14252;DHT22;7210;51.502;10.722;2023-04-25T09:56:00;9.60;1.00
14252;DHT22;7210;51.502;10.722;2023-04-25T09:58:31;9.80;1.00
14252;DHT22;7210;51.502;10.722;2023-04-25T10:01:04;9.90;1.00
14252;DHT22;7210;51.502;10.722;2023-04-25T10:03:43;10.00;1.00
14252;DHT22;7210;51.502;10.722;2023-04-25T10:06:42;10.10;1.00
14252;DHT22;7210;51.502;10.722;2023-04-25T10:09:11;10.50;1.00
14252;DHT22;7210;51.502;10.722;2023-04-25T10:11:40;10.70;1.00
14252;DHT22;7210;51.502;10.722;2023-04-25T10:14:08;10.40;1.00
14252;DHT22;7210;51.502;10.722;2023-04-25T10:16:38;9.90;1.00
14252;DHT22;7210;51.502;10.722;2023-04-25T10:19:07;9.20;1.00
14252;DHT22;7210;51.502;10.722;2023-04-25T10:21:36;8.90;1.00
14252;DHT22;7210;51.502;10.722;2023-04-25T10:24:11;8.50;1.00
14252;DHT22;7210;51.502;10.722;2023-04-25T10:26:39;8.30;1.00
14252;DHT22;7210;51.502;10.722;2023-04-25T10:29:07;8.20;1.00
14252;DHT22;7210;51.502;10.722;2023-04-25T10:31:45;8.40;1.00
14252;DHT22;7210;51.502;10.722;2023-04-25T10:34:13;8.50;1.00
14252;DHT22;7210;51.502;10.722;2023-04-25T10:36:40;8.70;1.00
14252;DHT22;7210;51.502;10.722;2023-04-25T10:39:08;8.90;1.00
14252;DHT22;7210;51.502;10.722;2023-04-25T10:41:52;9.00;1.00
14252;DHT22;7210;51.502;10.722;2023-04-25T10:44:20;9.30;1.00
14252;DHT22;7210;51.502;10.722;2023-04-25T10:46:49;9.30;1.00
14252;DHT22;7210;51.502;10.722;2023-04-25T10:49:29;9.50;1.00
14252;DHT22;7210;51.502;10.722;2023-04-25T10:52:17;9.70;1.00
14252;DHT22;7210;51.502;10.722;2023-04-25T10:54:51;9.60;1.00
14252;DHT22;7210;51.502;10.722;2023-04-25T10:57:36;9.60;1.00
14252;DHT22;7210;51.502;10.722;2023-04-25T11:00:10;9.80;1.00
14252;DHT22;7210;51.502;10.722;2023-04-25T11:02:45;9.70;1.00
14252;DHT22;7210;51.502;10.722;2023-04-25T11:05:20;9.60;1.00
14252;DHT22;7210;51.502;10.722;2023-04-25T11:07:53;9.50;1.00
14252;DHT22;7210;51.502;10.722;2023-04-25T11:10:25;9.10;1.00
14252;DHT22;7210;51.502;10.722;2023-04-25T11:12:53;9.00;1.00
14252;DHT22;7210;51.502;10.722;2023-04-25T11:15:21;8.80;1.00
14252;DHT22;7210;51.502;10.722;2023-04-25T11:17:51;8.70;1.00
14252;DHT22;7210;51.502;10.722;2023-04-25T11:20:18;8.70;1.00
14252;DHT22;7210;51.502;10.722;2023-04-25T11:22:46;8.80;1.00
14252;DHT22;7210;51.502;10.722;2023-04-25T11:25:15;9.00;1.00
14252;DHT22;7210;51.502;10.722;2023-04-25T11:27:52;9.20;1.00
14252;DHT22;7210;51.502;10.722;2023-04-25T11:30:22;9.50;1.00
14252;DHT22;7210;51.502;10.722;2023-04-25T11:32:52;9.50;1.00
14252;DHT22;7210;51.502;10.722;2023-04-25T11:35:20;9.50;1.00
14252;DHT22;7210;51.502;10.722;2023-04-25T11:37:49;9.60;1.00
14252;DHT22;7210;51.502;10.722;2023-04-25T11:40:16;9.70;1.00
14252;DHT22;7210;51.502;10.722;2023-04-25T11:42:45;9.90;1.00
14252;DHT22;7210;51.502;10.722;2023-04-25T11:45:13;9.70;1.00
14252;DHT22;7210;51.502;10.722;2023-04-25T11:47:41;9.50;1.00
14252;DHT22;7210;51.502;10.722;2023-04-25T11:50:10;9.60;1.00
14252;DHT22;7210;51.502;10.722;2023-04-25T11:52:38;9.50;1.00
14252;DHT22;7210;51.502;10.722;2023-04-25T11:55:08;9.40;1.00
14252;DHT22;7210;51.502;10.722;2023-04-25T11:57:38;9.30;1.00
14252;DHT22;7210;51.502;10.722;2023-04-25T12:00:11;9.30;1.00
14252;DHT22;7210;51.502;10.722;2023-04-25T12:02:41;9.10;1.00
14252;DHT22;7210;51.502;10.722;2023-04-25T12:05:12;9.10;1.00
14252;DHT22;7210;51.502;10.722;2023-04-25T12:07:41;9.10;1.00
14252;DHT22;7210;51.502;10.722;2023-04-25T12:10:10;9.00;1.00
14252;DHT22;7210;51.502;10.722;2023-04-25T12:12:41;9.00;1.00
14252;DHT22;7210;51.502;10.722;2023-04-25T12:15:13;9.10;1.00
14252;DHT22;7210;51.502;10.722;2023-04-25T12:17:45;9.20;1.00
14252;DHT22;7210;51.502;10.722;2023-04-25T12:20:15;9.40;1.00
14252;DHT22;7210;51.502;10.722;2023-04-25T12:22:46;9.40;1.00
14252;DHT22;7210;51.502;10.722;2023-04-25T12:25:35;9.50;1.00
14252;DHT22;7210;51.502;10.722;2023-04-25T12:28:16;9.50;1.00
14252;DHT22;7210;51.502;10.722;2023-04-25T12:30:55;9.70;1.00
14252;DHT22;7210;51.502;10.722;2023-04-25T12:33:24;9.90;1.00
14252;DHT22;7210;51.502;10.722;2023-04-25T12:35:54;9.70;1.00
14252;DHT22;7210;51.502;10.722;2023-04-25T12:38:25;9.60;1.00
14252;DHT22;7210;51.502;10.722;2023-04-25T12:40:54;9.40;1.00
14252;DHT22;7210;51.502;10.722;2023-04-25T12:43:22;9.10;1.00
14252;DHT22;7210;51.502;10.722;2023-04-25T12:45:50;9.00;1.00
14252;DHT22;7210;51.502;10.722;2023-04-25T12:48:18;8.90;1.00
14252;DHT22;7210;51.502;10.722;2023-04-25T12:50:46;8.80;1.00
14252;DHT22;7210;51.502;10.722;2023-04-25T12:53:16;8.80;1.00
14252;DHT22;7210;51.502;10.722;2023-04-25T12:55:43;8.80;1.00
14252;DHT22;7210;51.502;10.722;2023-04-25T12:58:12;9.00;1.00
14252;DHT22;7210;51.502;10.722;2023-04-25T13:00:39;9.20;1.00
14252;DHT22;7210;51.502;10.722;2023-04-25T13:03:06;9.20;1.00
14252;DHT22;7210;51.502;10.722;2023-04-25T13:05:34;9.40;1.00
14252;DHT22;7210;51.502;10.722;2023-04-25T13:08:02;9.50;1.00
14252;DHT22;7210;51.502;10.722;2023-04-25T13:10:31;9.60;1.00
14252;DHT22;7210;51.502;10.722;2023-04-25T13:12:59;9.70;1.00
14252;DHT22;7210;51.502;10.722;2023-04-25T13:15:26;9.50;1.00
14252;DHT22;7210;51.502;10.722;2023-04-25T13:17:54;9.40;1.00
14252;DHT22;7210;51.502;10.722;2023-04-25T13:20:21;9.40;1.00
14252;DHT22;7210;51.502;10.722;2023-04-25T13:22:48;9.30;1.00
14252;DHT22;7210;51.502;10.722;2023-04-25T13:25:16;9.20;1.00
14252;DHT22;7210;51.502;10.722;2023-04-25T13:27:44;9.10;1.00
14252;DHT22;7210;51.502;10.722;2023-04-25T13:30:12;9.30;1.00
14252;DHT22;7210;51.502;10.722;2023-04-25T13:32:40;9.30;1.00
14252;DHT22;7210;51.502;10.722;2023-04-25T13:35:10;9.20;1.00
14252;DHT22;7210;51.502;10.722;2023-04-25T13:37:39;9.00;1.00
14252;DHT22;7210;51.502;10.722;2023-04-25T13:40:08;9.00;1.00
14252;DHT22;7210;51.502;10.722;2023-04-25T13:42:37;9.20;1.00
14252;DHT22;7210;51.502;10.722;2023-04-25T13:45:08;9.60;1.00
14252;DHT22;7210;51.502;10.722;2023-04-25T13:47:35;10.00;1.00
14252;DHT22;7210;51.502;10.722;2023-04-25T13:50:03;10.30;1.00
14252;DHT22;7210;51.502;10.722;2023-04-25T13:52:33;10.50;1.00
14252;DHT22;7210;51.502;10.722;2023-04-25T13:55:00;10.80;1.00
14252;DHT22;7210;51.502;10.722;2023-04-25T13:57:29;10.90;1.00
14252;DHT22;7210;51.502;10.722;2023-04-25T13:59:57;10.90;1.00
14252;DHT22;7210;51.502;10.722;2023-04-25T14:02:26;10.80;1.00
14252;DHT22;7210;51.502;10.722;2023-04-25T14:04:53;10.70;1.00
14252;DHT22;7210;51.502;10.722;2023-04-25T14:07:20;10.50;1.00
14252;DHT22;7210;51.502;10.722;2023-04-25T14:09:47;10.30;1.00
14252;DHT22;7210;51.502;10.722;2023-04-25T14:12:16;10.30;1.00
14252;DHT22;7210;51.502;10.722;2023-04-25T14:14:43;10.00;1.00
14252;DHT22;7210;51.502;10.722;2023-04-25T14:17:11;9.60;1.00
14252;DHT22;7210;51.502;10.722;2023-04-25T14:19:39;9.40;1.00
14252;DHT22;7210;51.502;10.722;2023-04-25T14:22:09;9.30;1.00
14252;DHT22;7210;51.502;10.722;2023-04-25T14:24:37;9.10;1.00
14252;DHT22;7210;51.502;10.722;2023-04-25T14:27:04;9.00;1.00
14252;DHT22;7210;51.502;10.722;2023-04-25T14:29:31;8.80;1.00
14252;DHT22;7210;51.502;10.722;2023-04-25T14:31:58;8.70;1.00
14252;DHT22;7210;51.502;10.722;2023-04-25T14:34:26;8.70;1.00
14252;DHT22;7210;51.502;10.722;2023-04-25T14:36:54;8.70;1.00
14252;DHT22;7210;51.502;10.722;2023-04-25T14:39:21;8.60;1.00
14252;DHT22;7210;51.502;10.722;2023-04-25T14:41:48;8.70;1.00
14252;DHT22;7210;51.502;10.722;2023-04-25T14:44:15;8.80;1.00
14252;DHT22;7210;51.502;10.722;2023-04-25T14:46:43;9.00;1.00
14252;DHT22;7210;51.502;10.722;2023-04-25T14:49:10;9.20;1.00
14252;DHT22;7210;51.502;10.722;2023-04-25T14:51:37;9.50;1.00
14252;DHT22;7210;51.502;10.722;2023-04-25T14:54:06;9.80;1.00
14252;DHT22;7210;51.502;10.722;2023-04-25T14:56:33;10.00;1.00
14252;DHT22;7210;51.502;10.722;2023-04-25T14:59:00;10.20;1.00
14252;DHT22;7210;51.502;10.722;2023-04-25T15:01:27;10.50;1.00
14252;DHT22;7210;51.502;10.722;2023-04-25T15:03:54;10.60;1.00
14252;DHT22;7210;51.502;10.722;2023-04-25T15:06:22;10.80;1.00
14252;DHT22;7210;51.502;10.722;2023-04-25T15:08:52;11.00;1.00
14252;DHT22;7210;51.502;10.722;2023-04-25T15:11:20;11.20;1.00
14252;DHT22;7210;51.502;10.722;2023-04-25T15:13:50;11.20;1.00
14252;DHT22;7210;51.502;10.722;2023-04-25T15:16:18;11.30;1.00
14252;DHT22;7210;51.502;10.722;2023-04-25T15:18:45;11.50;1.00
14252;DHT22;7210;51.502;10.722;2023-04-25T15:21:12;11.60;1.00
14252;DHT22;7210;51.502;10.722;2023-04-25T15:23:39;11.40;1.00
14252;DHT22;7210;51.502;10.722;2023-04-25T15:26:06;11.30;1.00
14252;DHT22;7210;51.502;10.722;2023-04-25T15:28:35;11.20;1.00
14252;DHT22;7210;51.502;10.722;2023-04-25T15:31:02;11.20;1.00
14252;DHT22;7210;51.502;10.722;2023-04-25T15:33:29;11.30;1.00
14252;DHT22;7210;51.502;10.722;2023-04-25T15:35:57;11.20;1.00
14252;DHT22;7210;51.502;10.722;2023-04-25T15:38:25;11.00;1.00
14252;DHT22;7210;51.502;10.722;2023-04-25T15:40:52;10.80;1.00
14252;DHT22;7210;51.502;10.722;2023-04-25T15:43:19;10.50;1.00
14252;DHT22;7210;51.502;10.722;2023-04-25T15:45:47;10.30;1.00
14252;DHT22;7210;51.502;10.722;2023-04-25T15:48:15;10.00;1.00
14252;DHT22;7210;51.502;10.722;2023-04-25T15:50:42;9.70;1.00
14252;DHT22;7210;51.502;10.722;2023-04-25T15:53:09;9.50;1.00
14252;DHT22;7210;51.502;10.722;2023-04-25T15:55:36;9.50;1.00
14252;DHT22;7210;51.502;10.722;2023-04-25T15:58:04;9.40;1.00
14252;DHT22;7210;51.502;10.722;2023-04-25T16:00:31;9.30;1.00
14252;DHT22;7210;51.502;10.722;2023-04-25T16:03:02;9.20;1.00
14252;DHT22;7210;51.502;10.722;2023-04-25T16:05:30;9.20;1.00
14252;DHT22;7210;51.502;10.722;2023-04-25T16:07:57;9.20;1.00
14252;DHT22;7210;51.502;10.722;2023-04-25T16:10:25;9.10;1.00
14252;DHT22;7210;51.502;10.722;2023-04-25T16:12:52;9.20;1.00
14252;DHT22;7210;51.502;10.722;2023-04-25T16:15:19;9.20;1.00
14252;DHT22;7210;51.502;10.722;2023-04-25T16:17:46;9.20;1.00
14252;DHT22;7210;51.502;10.722;2023-04-25T16:20:15;9.40;1.00
14252;DHT22;7210;51.502;10.722;2023-04-25T16:22:43;9.50;1.00